DGAA/ACC METAR and TAF weather

Enter ICAO airport designator
Station Type Date Time Source
DGAA METAR 2018/01/23 01:00 UTC NOAA

DGAA 230100Z 23008KT 8000 NSC 27/25 Q1010 NOSIG


Station Type Date Time Source
DGAA Decoded METAR 2018/01/23 01:00 UTC NOAA

Accra, Ghana (DGAA) 05-36N 000-10W 69M
Jan 22, 2018 - 08:00 PM EST / 2018.01.23 0100 UTC
Wind: from the SW (230 degrees) at 9 MPH (8 KT):0
Visibility: 4 mile(s):0
Temperature: 80 F (27 C)
Dew Point: 77 F (25 C)
Relative Humidity: 88%
Pressure (altimeter): 29.83 in. Hg (1010 hPa)
ob: DGAA 230100Z 23008KT 8000 NSC 27/25 Q1010 NOSIG
cycle: 1

Station Type Date Time Source
DGAA TAF 2018/01/22 18:24 UTC NOAA

TAF TAF DGAA 221700Z 2218/2324 20010KT 8000 NSC
BECMG 2302/2304 27005KT
BECMG 2306/2308 3000 BR SCT010
FM231100 19015KT 5000 HZ FEW020


Example: see airport list